Betagas — V2KA8 — position and weather

sailwx.info

Track history (hours):
 
Tides and Currents Weather Stations Pressure Air Temp Water Temp Dewpoint Dewpoint Depression Visibility Wind Speed Wind Dir Waves Ship Positions

Betagas

Last reported at 2017-Oct-17 01:43 UTC. Time now 2017-Oct-17 04:01 UTC.
Position N 53°32' E 004°55'.

Length 114.6 m; beam 15.7 m; draft 7.4 m.

Type: Tanker. MMSI: 304050636.

Date/timePositionNaut miles runAvg speedWind from/ knotsBaromVisibWave heightAir tempDewpointWater temp
2017-Oct-17 01:43N 53°32' E 004°55'3 9.7
2017-Oct-17 01:22N 53°33' E 005°01'410.4
2017-Oct-17 01:00N 53°35' E 005°07'611.4
2017-Oct-17 00:30N 53°37' E 005°15'612.0
2017-Oct-17 00:00N 53°39' E 005°25'612.3
2017-Oct-16 23:30N 53°41' E 005°35'612.4
2017-Oct-16 23:00N 53°43' E 005°45'612.4
2017-Oct-16 22:29N 53°45' E 005°55'612.2
2017-Oct-16 21:58N 53°47' E 006°05'3311.7
2017-Oct-16 19:08N 53°56' E 006°59'3311.2
2017-Oct-16 16:10N 54°02' E 007°55'211.9
2017-Oct-16 16:00N 54°02' E 007°58'612.0
2017-Oct-16 15:29N 54°01' E 008°08'713.4
2017-Oct-16 15:00N 53°60' E 008°19'1515.6
2017-Oct-16 14:01N 53°53' E 008°43'0 0.5
2017-Oct-16 13:29N 53°53' E 008°42'0 0.0
2017-Oct-16 12:59N 53°53' E 008°42'0 0.0
2017-Oct-16 12:26N 53°53' E 008°42'0 0.0
2017-Oct-16 11:59N 53°53' E 008°42'0 0.0
2017-Oct-16 11:23N 53°53' E 008°42'0 0.0
2017-Oct-16 10:59N 53°53' E 008°42'0 0.0
2017-Oct-16 10:29N 53°53' E 008°42'0 0.0
2017-Oct-16 09:50N 53°53' E 008°42'0 0.0
2017-Oct-16 09:29N 53°53' E 008°42'0 0.0
2017-Oct-16 08:59N 53°53' E 008°42'0 0.0
2017-Oct-16 08:23N 53°53' E 008°42'0 0.0
2017-Oct-15 23:55N 53°53' E 008°42'1 1.8
2017-Oct-15 23:31N 53°52' E 008°43'0 1.0
2017-Oct-15 23:00N 53°52' E 008°44'611.8
2017-Oct-15 22:30N 53°51' E 008°53'714.8
2017-Oct-15 22:00N 53°53' E 009°05'510.3
2017-Oct-15 21:31N 53°53' E 009°14'713.4
2017-Oct-15 21:00N 53°48' E 009°23'612.9
2017-Oct-15 20:31N 53°43' E 009°29'4 8.2
2017-Oct-15 20:00N 53°39' E 009°31'0 0.0
2017-Oct-15 19:30N 53°39' E 009°31'0 0.0
2017-Oct-15 19:00N 53°39' E 009°31'0 0.0
2017-Oct-15 18:30N 53°39' E 009°31'0 0.0
2017-Oct-15 18:00N 53°39' E 009°31'0 0.0
2017-Oct-15 17:30N 53°39' E 009°31'0 0.0
2017-Oct-15 17:00N 53°39' E 009°31'0 0.0
2017-Oct-15 16:30N 53°39' E 009°31'0 0.0
2017-Oct-15 16:00N 53°39' E 009°31'0 0.0
2017-Oct-15 15:30N 53°39' E 009°31'0 0.0
2017-Oct-15 15:00N 53°39' E 009°31'0 0.0
2017-Oct-15 14:00N 53°39' E 009°31'0 0.0
2017-Oct-15 13:30N 53°39' E 009°31'0 0.0
2017-Oct-15 13:00N 53°39' E 009°31'0 0.0
2017-Oct-15 12:30N 53°39' E 009°31'0 0.0
2017-Oct-15 12:00N 53°39' E 009°31'0 0.0
2017-Oct-15 11:30N 53°39' E 009°31'0 0.0
2017-Oct-15 11:00N 53°39' E 009°31'0 0.0
2017-Oct-15 10:30N 53°39' E 009°31'0 0.0
2017-Oct-15 10:00N 53°39' E 009°31'0 0.0
2017-Oct-15 09:30N 53°39' E 009°31'0 0.0
2017-Oct-15 09:00N 53°39' E 009°31'0 0.0
2017-Oct-15 08:30N 53°39' E 009°31'0 0.0
2017-Oct-15 08:00N 53°39' E 009°31'0 0.0
2017-Oct-15 07:30N 53°39' E 009°31'0 0.0
2017-Oct-15 07:00N 53°39' E 009°31'0 0.0
2017-Oct-15 06:30N 53°39' E 009°31'0 0.0
2017-Oct-15 06:00N 53°39' E 009°31'0 0.0
2017-Oct-15 05:30N 53°39' E 009°31'0 0.0
2017-Oct-15 05:00N 53°39' E 009°31'0 0.0
2017-Oct-15 04:30N 53°39' E 009°31'0 0.0
2017-Oct-15 04:00N 53°39' E 009°31'0 0.0
2017-Oct-15 03:30N 53°39' E 009°31'0 0.0
2017-Oct-15 03:00N 53°39' E 009°31'0 0.0
2017-Oct-15 02:30N 53°39' E 009°31'0 0.0
2017-Oct-15 02:00N 53°39' E 009°31'1 1.9
2017-Oct-15 01:30N 53°40' E 009°31'4 8.1
2017-Oct-15 01:01N 53°43' E 009°28'611.9
2017-Oct-15 00:30N 53°49' E 009°22'611.8
2017-Oct-15 00:00N 53°53' E 009°15'510.7
2017-Oct-14 23:30N 53°53' E 009°06'612.1
2017-Oct-14 23:01N 53°51' E 008°56'612.4
2017-Oct-14 22:31N 53°51' E 008°46'611.2
2017-Oct-14 22:00N 53°55' E 008°40'712.4
2017-Oct-14 21:25N 53°58' E 008°29'613.4
2017-Oct-14 20:56N 53°59' E 008°18'4414.2
2017-Oct-14 17:48N 53°51' E 007°04'515.6
2017-Oct-14 17:30N 53°50' E 006°56'915.6
2017-Oct-14 16:54N 53°48' E 006°41'715.7
2017-Oct-14 16:29N 53°46' E 006°30'715.7
2017-Oct-14 16:00N 53°44' E 006°18'815.9
2017-Oct-14 15:30N 53°42' E 006°05'916.0
2017-Oct-14 14:58N 53°39' E 005°51'816.1
2017-Oct-14 14:29N 53°36' E 005°39'816.4
2017-Oct-14 13:59N 53°34' E 005°26'816.2
2017-Oct-14 13:30N 53°31' E 005°13'816.6
2017-Oct-14 13:00N 53°28' E 005°00'816.4
2017-Oct-14 12:30N 53°25' E 004°48'815.2
2017-Oct-14 11:59N 53°19' E 004°40'1116.7
2017-Oct-14 11:20N 53°09' E 004°31'616.5
2017-Oct-14 10:59N 53°04' E 004°26'816.1
2017-Oct-14 10:30N 52°57' E 004°20'816.1
2017-Oct-14 10:00N 52°50' E 004°14'816.1
2017-Oct-14 09:30N 52°44' E 004°07'816.1
2017-Oct-14 09:00N 52°38' E 003°58'816.0
2017-Oct-14 08:30N 52°32' E 003°48'815.9
2017-Oct-14 08:00N 52°27' E 003°39'815.2
2017-Oct-14 07:28N 52°20' E 003°31'1115.3
2017-Oct-14 06:43N 52°09' E 003°28'315.1
2017-Oct-14 06:30N 52°06' E 003°28'914.2
2017-Oct-14 05:51N 51°57' E 003°23'614.5
2017-Oct-14 05:27N 51°51' E 003°20'714.2
2017-Oct-14 05:00N 51°45' E 003°17'5 9.2
2017-Oct-14 04:30N 51°41' E 003°19'713.9
2017-Oct-14 04:00N 51°35' E 003°24'612.7
2017-Oct-14 03:30N 51°29' E 003°30'611.5
2017-Oct-14 03:00N 51°26' E 003°37'510.7
2017-Oct-14 02:30N 51°23' E 003°44'2 4.6
2017-Oct-14 01:58N 51°21' E 003°46'0 0.0
2017-Oct-14 01:28N 51°21' E 003°46'0 0.0
2017-Oct-14 00:58N 51°21' E 003°46'0 0.0
2017-Oct-14 00:28N 51°21' E 003°46'0 0.0
2017-Oct-13 23:58N 51°21' E 003°46'0 0.0
2017-Oct-13 23:28N 51°21' E 003°46'0 0.0
2017-Oct-13 22:58N 51°21' E 003°46'0 0.0
2017-Oct-13 22:28N 51°21' E 003°46'0 0.0
2017-Oct-13 21:49N 51°21' E 003°46'0 0.0
2017-Oct-13 21:25N 51°21' E 003°46'0 0.0
2017-Oct-13 20:58N 51°21' E 003°46'0 0.0
2017-Oct-13 20:28N 51°21' E 003°46'0 0.0
2017-Oct-13 19:58N 51°21' E 003°46'0 0.0
2017-Oct-13 19:28N 51°21' E 003°46'0 0.0
2017-Oct-13 18:58N 51°21' E 003°46'0 0.0
2017-Oct-13 18:28N 51°21' E 003°46'0 0.0
2017-Oct-13 17:58N 51°21' E 003°46'0 0.0
2017-Oct-13 17:28N 51°21' E 003°46'0 0.0
2017-Oct-13 16:58N 51°21' E 003°46'0 0.0
2017-Oct-13 16:28N 51°21' E 003°46'0 0.0
2017-Oct-13 15:58N 51°21' E 003°46'0 0.0
2017-Oct-13 15:28N 51°21' E 003°46'0 0.0
2017-Oct-13 14:58N 51°21' E 003°46'0 0.0
2017-Oct-13 14:16N 51°21' E 003°46'0 0.0
2017-Oct-13 13:52N 51°21' E 003°46'0 0.0
2017-Oct-13 13:28N 51°21' E 003°46'0 0.0
2017-Oct-13 12:58N 51°21' E 003°46'0 0.0
2017-Oct-13 12:28N 51°21' E 003°46'0 0.0
2017-Oct-13 11:58N 51°21' E 003°46'0 0.0
2017-Oct-13 11:22N 51°21' E 003°46'0 0.0
2017-Oct-13 10:58N 51°21' E 003°46'0 0.0
2017-Oct-13 10:28N 51°21' E 003°46'0 0.0
2017-Oct-13 09:58N 51°21' E 003°46'0 0.0
2017-Oct-13 09:22N 51°21' E 003°46'0 0.0
2017-Oct-13 08:52N 51°21' E 003°46'0 0.0
2017-Oct-13 08:22N 51°21' E 003°46'0 0.0
2017-Oct-13 07:58N 51°21' E 003°46'0 0.0
2017-Oct-13 07:28N 51°21' E 003°46'0 0.0
2017-Oct-13 06:58N 51°21' E 003°46'0 0.0
2017-Oct-13 06:22N 51°21' E 003°46'0 0.0
2017-Oct-13 05:52N 51°21' E 003°46'0 0.0
2017-Oct-13 05:28N 51°21' E 003°46'0 0.0
2017-Oct-13 04:58N 51°21' E 003°46'0 0.0
2017-Oct-13 04:22N 51°21' E 003°46'0 0.0
2017-Oct-13 03:58N 51°21' E 003°46'0 0.0
2017-Oct-13 03:22N 51°21' E 003°46'0 0.0
2017-Oct-13 02:49N 51°21' E 003°46'0 0.0
2017-Oct-13 02:28N 51°21' E 003°46'0 0.0
2017-Oct-13 01:58N 51°21' E 003°46'0 0.0
2017-Oct-13 01:16N 51°21' E 003°46'0 0.0
2017-Oct-13 00:52N 51°21' E 003°46'0 0.0
2017-Oct-13 00:16N 51°21' E 003°46'0 0.0
2017-Oct-12 23:58N 51°21' E 003°46'0 0.0
2017-Oct-12 23:28N 51°21' E 003°46'0 0.0
2017-Oct-12 22:58N 51°21' E 003°46'0 0.0
2017-Oct-12 22:28N 51°21' E 003°46'0 0.0
2017-Oct-12 21:58N 51°21' E 003°46'0 0.0
2017-Oct-12 21:28N 51°21' E 003°46'0 0.0
2017-Oct-12 20:58N 51°21' E 003°46'0 0.0
2017-Oct-12 20:28N 51°21' E 003°46'0 0.0
2017-Oct-12 19:58N 51°21' E 003°46'0 0.0
2017-Oct-12 19:28N 51°21' E 003°46'0 0.0
2017-Oct-12 18:58N 51°21' E 003°46'0 0.0
2017-Oct-12 18:28N 51°21' E 003°46'0 0.0
2017-Oct-12 17:58N 51°21' E 003°46'0 0.0
2017-Oct-12 17:28N 51°21' E 003°46'0 0.0
2017-Oct-12 16:52N 51°21' E 003°46'0 0.0
2017-Oct-12 16:28N 51°21' E 003°46'0 0.0
2017-Oct-12 15:34N 51°21' E 003°46'0 0.0
2017-Oct-12 15:28N 51°21' E 003°46'0 0.0
2017-Oct-12 14:58N 51°21' E 003°46'0 0.0
2017-Oct-12 14:25N 51°21' E 003°46'0 0.0
2017-Oct-12 13:58N 51°21' E 003°46'0 0.0
2017-Oct-12 13:22N 51°21' E 003°46'0 0.0
2017-Oct-12 12:58N 51°21' E 003°46'0 0.0
2017-Oct-12 12:22N 51°21' E 003°46'0 0.0
2017-Oct-12 11:58N 51°21' E 003°46'0 0.0
2017-Oct-12 11:22N 51°21' E 003°46'0 0.0
2017-Oct-12 10:52N 51°21' E 003°46'0 0.0
2017-Oct-12 10:28N 51°21' E 003°46'0 0.0
2017-Oct-12 10:00N 51°21' E 003°46'2 3.0
2017-Oct-12 09:30N 51°22' E 003°45'510.4
2017-Oct-12 09:00N 51°26' E 003°40'611.9
2017-Oct-12 08:31N 51°28' E 003°31'713.2
2017-Oct-12 08:00N 51°33' E 003°25'714.3
2017-Oct-12 07:30N 51°39' E 003°19'611.9
2017-Oct-12 07:00N 51°44' E 003°13'2 4.6
2017-Oct-12 06:30N 51°47' E 003°12'3 3.9
2017-Oct-12 05:49N 51°48' E 003°09'1 2.3
2017-Oct-12 05:12N 51°48' E 003°06'1 1.4
2017-Oct-12 04:19N 51°48' E 003°08'3 4.9
2017-Oct-12 03:46N 51°50' E 003°12'1 3.5
2017-Oct-12 03:28N 51°50' E 003°14'2 3.0
2017-Oct-12 02:55N 51°51' E 003°16'4 9.5
2017-Oct-12 02:30N 51°54' E 003°18'611.7
2017-Oct-12 01:58N 52°01' E 003°20'711.2
2017-Oct-12 01:22N 52°07' E 003°22'511.2
2017-Oct-12 00:57N 52°12' E 003°23'238 9.5
2017-Oct-10 23:57N 53°39' E 009°31'0 0.0
2017-Oct-10 23:27N 53°39' E 009°31'0 0.0
2017-Oct-10 22:57N 53°39' E 009°31'0 0.0
2017-Oct-10 22:27N 53°39' E 009°31'0 0.0
2017-Oct-10 21:57N 53°39' E 009°31'0 0.0
2017-Oct-10 21:27N 53°39' E 009°31'0 0.0
2017-Oct-10 20:57N 53°39' E 009°31'0 0.0
2017-Oct-10 20:27N 53°39' E 009°31'0 0.0
2017-Oct-10 19:57N 53°39' E 009°31'0 0.0
2017-Oct-10 19:27N 53°39' E 009°31'0 0.0
2017-Oct-10 18:57N 53°39' E 009°31'0 0.0
2017-Oct-10 18:27N 53°39' E 009°31'0 0.0
2017-Oct-10 17:57N 53°39' E 009°31'0 0.0
2017-Oct-10 17:27N 53°39' E 009°31'0 0.0
2017-Oct-10 16:57N 53°39' E 009°31'0 0.0
2017-Oct-10 16:27N 53°39' E 009°31'0 0.0
2017-Oct-10 15:57N 53°39' E 009°31'0 0.0
2017-Oct-10 15:27N 53°39' E 009°31'0 0.0
2017-Oct-10 14:57N 53°39' E 009°31'0 0.0
2017-Oct-10 13:57N 53°39' E 009°31'0 0.0
2017-Oct-10 13:27N 53°39' E 009°31'0 0.0
2017-Oct-10 12:51N 53°39' E 009°31'0 0.0
2017-Oct-10 12:27N 53°39' E 009°31'0 0.0
2017-Oct-10 11:57N 53°39' E 009°31'0 0.0
2017-Oct-10 11:27N 53°39' E 009°31'0 0.0
2017-Oct-10 10:57N 53°39' E 009°31'0 0.0
2017-Oct-10 10:27N 53°39' E 009°31'0 0.0
2017-Oct-10 09:57N 53°39' E 009°31'0 0.0
2017-Oct-10 09:27N 53°39' E 009°31'0 0.0
2017-Oct-10 08:39N 53°39' E 009°31'0 0.0
2017-Oct-10 08:15N 53°39' E 009°31'0 0.0
2017-Oct-10 07:57N 53°39' E 009°31'0 0.0
2017-Oct-10 07:27N 53°39' E 009°31'0 0.0
2017-Oct-10 06:57N 53°39' E 009°31'0 0.0
2017-Oct-10 06:27N 53°39' E 009°31'0 0.0
2017-Oct-10 05:57N 53°39' E 009°31'0 0.0
2017-Oct-10 05:21N 53°39' E 009°31'0 0.0
2017-Oct-10 04:57N 53°39' E 009°31'0 0.0
2017-Oct-10 04:27N 53°39' E 009°31'0 0.0
2017-Oct-10 03:57N 53°39' E 009°31'0 0.0
2017-Oct-10 03:27N 53°39' E 009°31'0 0.0
2017-Oct-10 02:57N 53°39' E 009°31'0 0.0
2017-Oct-10 02:27N 53°39' E 009°31'0 0.0
2017-Oct-10 01:57N 53°39' E 009°31'0 0.0
2017-Oct-10 01:30N 53°39' E 009°31'0 0.0
2017-Oct-10 00:57N 53°39' E 009°31'0 0.0
2017-Oct-10 00:27N 53°39' E 009°31'0 0.0
2017-Oct-09 23:57N 53°39' E 009°31'0 0.0
2017-Oct-09 23:27N 53°39' E 009°31'0 0.0
2017-Oct-09 22:57N 53°39' E 009°31'0 0.0
2017-Oct-09 22:27N 53°39' E 009°31'0 0.0
2017-Oct-09 22:00N 53°39' E 009°31'0 0.0
2017-Oct-09 21:30N 53°39' E 009°31'0 0.0
2017-Oct-09 21:00N 53°39' E 009°31'0 0.0
2017-Oct-09 20:21N 53°39' E 009°31'0 0.0
2017-Oct-09 19:57N 53°39' E 009°31'0 0.0
2017-Oct-09 19:27N 53°39' E 009°31'0 0.0
2017-Oct-09 18:57N 53°39' E 009°31'0 0.0
2017-Oct-09 18:27N 53°39' E 009°31'0 0.0
2017-Oct-09 17:57N 53°39' E 009°31'0 0.0
2017-Oct-09 17:27N 53°39' E 009°31'0 0.2
2017-Oct-09 17:01N 53°39' E 009°31'2 3.7
2017-Oct-09 16:31N 53°41' E 009°30'713.2
2017-Oct-09 16:00N 53°46' E 009°24'714.1
2017-Oct-09 15:30N 53°52' E 009°17'612.5
2017-Oct-09 15:00N 53°53' E 009°06'816.0
2017-Oct-09 14:30N 53°50' E 008°53'714.4
2017-Oct-09 14:01N 53°53' E 008°42'714.6
2017-Oct-09 13:30N 53°58' E 008°33'815.5
2017-Oct-09 13:00N 53°59' E 008°20'9 9.2
2017-Oct-09 11:59N 54°02' E 008°04'2 0.5
2017-Oct-09 07:17N 54°03' E 008°08'0 0.1
2017-Oct-09 06:59N 54°03' E 008°08'0 0.0
2017-Oct-09 05:23N 54°03' E 008°08'0 0.0
2017-Oct-09 04:44N 54°03' E 008°08'0 0.0
2017-Oct-09 04:26N 54°03' E 008°08'0 0.0
2017-Oct-09 03:53N 54°03' E 008°08'0 0.0
2017-Oct-09 03:26N 54°03' E 008°08'0 0.8
2017-Oct-09 03:00N 54°03' E 008°08'510.0
2017-Oct-09 02:30N 54°01' E 008°00'713.9
2017-Oct-09 02:00N 53°58' E 007°49'8515.0
2017-Oct-08 20:23N 53°35' E 005°32'815.5
2017-Oct-08 19:51N 53°33' E 005°18'515.4
2017-Oct-08 19:31N 53°31' E 005°10'815.7
2017-Oct-08 19:00N 53°28' E 004°58'815.5
2017-Oct-08 18:30N 53°25' E 004°46'815.0
2017-Oct-08 18:00N 53°18' E 004°39'1215.7
2017-Oct-08 17:14N 53°08' E 004°29'415.9
2017-Oct-08 17:00N 53°05' E 004°26'815.7
2017-Oct-08 16:30N 52°58' E 004°20'815.4
2017-Oct-08 16:00N 52°51' E 004°14'815.3
2017-Oct-08 15:30N 52°44' E 004°08'714.9
2017-Oct-08 15:00N 52°39' E 003°60'714.7
2017-Oct-08 14:30N 52°34' E 003°51'5312.8
2017-Oct-08 10:21N 51°45' E 003°15'410.3
2017-Oct-08 09:59N 51°42' E 003°18'712.6
2017-Oct-08 09:28N 51°36' E 003°23'511.8
2017-Oct-08 09:00N 51°31' E 003°26'612.3
2017-Oct-08 08:30N 51°27' E 003°33'713.1
2017-Oct-08 08:00N 51°24' E 003°43'4 6.3
2017-Oct-08 07:22N 51°21' E 003°46'0 0.0
2017-Oct-08 06:58N 51°21' E 003°46'0 0.0
2017-Oct-08 06:28N 51°21' E 003°46'0 0.0
2017-Oct-08 05:58N 51°21' E 003°46'0 0.0
2017-Oct-08 05:28N 51°21' E 003°46'0 0.0
2017-Oct-08 04:43N 51°21' E 003°46'0 0.0
2017-Oct-08 04:10N 51°21' E 003°46'0 0.0
2017-Oct-08 03:52N 51°21' E 003°46'0 0.0
2017-Oct-08 03:28N 51°21' E 003°46'0 0.0
2017-Oct-08 02:58N 51°21' E 003°46'0 0.0
2017-Oct-08 02:28N 51°21' E 003°46'0 0.0
2017-Oct-08 01:58N 51°21' E 003°46'0 0.0
2017-Oct-08 01:28N 51°21' E 003°46'0 0.0
2017-Oct-08 00:58N 51°21' E 003°46'0 0.0
2017-Oct-08 00:28N 51°21' E 003°46'0 0.0
2017-Oct-07 23:58N 51°21' E 003°46'0 0.0
2017-Oct-07 23:28N 51°21' E 003°46'0 0.0
2017-Oct-07 22:58N 51°21' E 003°46'0 0.0
2017-Oct-07 22:28N 51°21' E 003°46'0 0.0
2017-Oct-07 21:58N 51°21' E 003°46'0 0.0
2017-Oct-07 21:28N 51°21' E 003°46'0 0.0
2017-Oct-07 20:58N 51°21' E 003°46'0 0.0
2017-Oct-07 20:28N 51°21' E 003°46'0 0.0
2017-Oct-07 19:55N 51°21' E 003°46'0 0.0
2017-Oct-07 19:28N 51°21' E 003°46'0 0.0
2017-Oct-07 18:58N 51°21' E 003°46'0 0.0
2017-Oct-07 18:25N 51°21' E 003°46'0 0.0
2017-Oct-07 17:58N 51°21' E 003°46'0 0.0
2017-Oct-07 17:28N 51°21' E 003°46'0 0.0
2017-Oct-07 16:52N 51°21' E 003°46'0 0.0
2017-Oct-07 16:28N 51°21' E 003°46'0 0.0
2017-Oct-07 15:58N 51°21' E 003°46'0 0.0
2017-Oct-07 15:25N 51°21' E 003°46'0 0.0
2017-Oct-07 14:58N 51°21' E 003°46'0 0.0
2017-Oct-07 14:28N 51°21' E 003°46'0 0.0
2017-Oct-07 13:58N 51°21' E 003°46'0 0.0
2017-Oct-07 13:28N 51°21' E 003°46'0 0.0
2017-Oct-07 12:40N 51°21' E 003°46'0 0.0
2017-Oct-07 12:28N 51°21' E 003°46'0 0.0
2017-Oct-07 11:58N 51°21' E 003°46'0 0.0
2017-Oct-07 11:28N 51°21' E 003°46'0 0.0
2017-Oct-07 10:52N 51°21' E 003°46'0 0.0
2017-Oct-07 10:28N 51°21' E 003°46'0 0.0
2017-Oct-07 09:49N 51°21' E 003°46'0 0.0
2017-Oct-07 09:25N 51°21' E 003°46'0 0.0
2017-Oct-07 08:58N 51°21' E 003°46'0 0.0
2017-Oct-07 08:22N 51°21' E 003°46'0 0.0
2017-Oct-07 07:52N 51°21' E 003°46'0 0.0
2017-Oct-07 07:28N 51°21' E 003°46'0 0.0
2017-Oct-07 06:49N 51°21' E 003°46'0 0.0
2017-Oct-07 06:28N 51°21' E 003°46'0 0.0
2017-Oct-07 05:55N 51°21' E 003°46'0 0.0
2017-Oct-07 05:28N 51°21' E 003°46'0 0.0
2017-Oct-07 04:58N 51°21' E 003°46'0 0.0
2017-Oct-07 04:28N 51°21' E 003°46'0 0.0
2017-Oct-07 03:58N 51°21' E 003°46'0 0.0
2017-Oct-07 03:28N 51°21' E 003°46'0 0.0
2017-Oct-07 02:58N 51°21' E 003°46'0 0.0
2017-Oct-07 02:28N 51°21' E 003°46'0 0.0
2017-Oct-07 01:58N 51°21' E 003°46'  
Track history (hours):
 
Tides and Currents Weather Stations Pressure Air Temp Water Temp Dewpoint Dewpoint Depression Visibility Wind Speed Wind Dir Waves Ship Positions

Betagas

Last reported at 2017-Oct-17 01:43 UTC. Time now 2017-Oct-17 04:01 UTC.
Position N 53°32' E 004°55'.

Length 114.6 m; beam 15.7 m; draft 7.4 m.

Type: Tanker. MMSI: 304050636.

Date/timePositionNaut miles runAvg speedWind from/ knotsBaromVisibWave heightAir tempDewpointWater temp
2017-Oct-17 01:43N 53°32' E 004°55'3 9.7
2017-Oct-17 01:22N 53°33' E 005°01'410.4
2017-Oct-17 01:00N 53°35' E 005°07'611.4
2017-Oct-17 00:30N 53°37' E 005°15'612.0
2017-Oct-17 00:00N 53°39' E 005°25'612.3
2017-Oct-16 23:30N 53°41' E 005°35'612.4
2017-Oct-16 23:00N 53°43' E 005°45'612.4
2017-Oct-16 22:29N 53°45' E 005°55'612.2
2017-Oct-16 21:58N 53°47' E 006°05'3311.7
2017-Oct-16 19:08N 53°56' E 006°59'3311.2
2017-Oct-16 16:10N 54°02' E 007°55'211.9
2017-Oct-16 16:00N 54°02' E 007°58'612.0
2017-Oct-16 15:29N 54°01' E 008°08'713.4
2017-Oct-16 15:00N 53°60' E 008°19'1515.6
2017-Oct-16 14:01N 53°53' E 008°43'0 0.5
2017-Oct-16 13:29N 53°53' E 008°42'0 0.0
2017-Oct-16 12:59N 53°53' E 008°42'0 0.0
2017-Oct-16 12:26N 53°53' E 008°42'0 0.0
2017-Oct-16 11:59N 53°53' E 008°42'0 0.0
2017-Oct-16 11:23N 53°53' E 008°42'0 0.0
2017-Oct-16 10:59N 53°53' E 008°42'0 0.0
2017-Oct-16 10:29N 53°53' E 008°42'0 0.0
2017-Oct-16 09:50N 53°53' E 008°42'0 0.0
2017-Oct-16 09:29N 53°53' E 008°42'0 0.0
2017-Oct-16 08:59N 53°53' E 008°42'0 0.0
2017-Oct-16 08:23N 53°53' E 008°42'0 0.0
2017-Oct-15 23:55N 53°53' E 008°42'1 1.8
2017-Oct-15 23:31N 53°52' E 008°43'0 1.0
2017-Oct-15 23:00N 53°52' E 008°44'611.8
2017-Oct-15 22:30N 53°51' E 008°53'714.8
2017-Oct-15 22:00N 53°53' E 009°05'510.3
2017-Oct-15 21:31N 53°53' E 009°14'713.4
2017-Oct-15 21:00N 53°48' E 009°23'612.9
2017-Oct-15 20:31N 53°43' E 009°29'4 8.2
2017-Oct-15 20:00N 53°39' E 009°31'0 0.0
2017-Oct-15 19:30N 53°39' E 009°31'0 0.0
2017-Oct-15 19:00N 53°39' E 009°31'0 0.0
2017-Oct-15 18:30N 53°39' E 009°31'0 0.0
2017-Oct-15 18:00N 53°39' E 009°31'0 0.0
2017-Oct-15 17:30N 53°39' E 009°31'0 0.0
2017-Oct-15 17:00N 53°39' E 009°31'0 0.0
2017-Oct-15 16:30N 53°39' E 009°31'0 0.0
2017-Oct-15 16:00N 53°39' E 009°31'0 0.0
2017-Oct-15 15:30N 53°39' E 009°31'0 0.0
2017-Oct-15 15:00N 53°39' E 009°31'0 0.0
2017-Oct-15 14:00N 53°39' E 009°31'0 0.0
2017-Oct-15 13:30N 53°39' E 009°31'0 0.0
2017-Oct-15 13:00N 53°39' E 009°31'0 0.0
2017-Oct-15 12:30N 53°39' E 009°31'0 0.0
2017-Oct-15 12:00N 53°39' E 009°31'0 0.0
2017-Oct-15 11:30N 53°39' E 009°31'0 0.0
2017-Oct-15 11:00N 53°39' E 009°31'0 0.0
2017-Oct-15 10:30N 53°39' E 009°31'0 0.0
2017-Oct-15 10:00N 53°39' E 009°31'0 0.0
2017-Oct-15 09:30N 53°39' E 009°31'0 0.0
2017-Oct-15 09:00N 53°39' E 009°31'0 0.0
2017-Oct-15 08:30N 53°39' E 009°31'0 0.0
2017-Oct-15 08:00N 53°39' E 009°31'0 0.0
2017-Oct-15 07:30N 53°39' E 009°31'0 0.0
2017-Oct-15 07:00N 53°39' E 009°31'0 0.0
2017-Oct-15 06:30N 53°39' E 009°31'0 0.0
2017-Oct-15 06:00N 53°39' E 009°31'0 0.0
2017-Oct-15 05:30N 53°39' E 009°31'0 0.0
2017-Oct-15 05:00N 53°39' E 009°31'0 0.0
2017-Oct-15 04:30N 53°39' E 009°31'0 0.0
2017-Oct-15 04:00N 53°39' E 009°31'0 0.0
2017-Oct-15 03:30N 53°39' E 009°31'0 0.0
2017-Oct-15 03:00N 53°39' E 009°31'0 0.0
2017-Oct-15 02:30N 53°39' E 009°31'0 0.0
2017-Oct-15 02:00N 53°39' E 009°31'1 1.9
2017-Oct-15 01:30N 53°40' E 009°31'4 8.1
2017-Oct-15 01:01N 53°43' E 009°28'611.9
2017-Oct-15 00:30N 53°49' E 009°22'611.8
2017-Oct-15 00:00N 53°53' E 009°15'510.7
2017-Oct-14 23:30N 53°53' E 009°06'612.1
2017-Oct-14 23:01N 53°51' E 008°56'612.4
2017-Oct-14 22:31N 53°51' E 008°46'611.2
2017-Oct-14 22:00N 53°55' E 008°40'712.4
2017-Oct-14 21:25N 53°58' E 008°29'613.4
2017-Oct-14 20:56N 53°59' E 008°18'4414.2
2017-Oct-14 17:48N 53°51' E 007°04'515.6
2017-Oct-14 17:30N 53°50' E 006°56'915.6
2017-Oct-14 16:54N 53°48' E 006°41'715.7
2017-Oct-14 16:29N 53°46' E 006°30'715.7
2017-Oct-14 16:00N 53°44' E 006°18'815.9
2017-Oct-14 15:30N 53°42' E 006°05'916.0
2017-Oct-14 14:58N 53°39' E 005°51'816.1
2017-Oct-14 14:29N 53°36' E 005°39'816.4
2017-Oct-14 13:59N 53°34' E 005°26'816.2
2017-Oct-14 13:30N 53°31' E 005°13'816.6
2017-Oct-14 13:00N 53°28' E 005°00'816.4
2017-Oct-14 12:30N 53°25' E 004°48'815.2
2017-Oct-14 11:59N 53°19' E 004°40'1116.7
2017-Oct-14 11:20N 53°09' E 004°31'616.5
2017-Oct-14 10:59N 53°04' E 004°26'816.1
2017-Oct-14 10:30N 52°57' E 004°20'816.1
2017-Oct-14 10:00N 52°50' E 004°14'816.1
2017-Oct-14 09:30N 52°44' E 004°07'816.1
2017-Oct-14 09:00N 52°38' E 003°58'816.0
2017-Oct-14 08:30N 52°32' E 003°48'815.9
2017-Oct-14 08:00N 52°27' E 003°39'815.2
2017-Oct-14 07:28N 52°20' E 003°31'1115.3
2017-Oct-14 06:43N 52°09' E 003°28'315.1
2017-Oct-14 06:30N 52°06' E 003°28'914.2
2017-Oct-14 05:51N 51°57' E 003°23'614.5
2017-Oct-14 05:27N 51°51' E 003°20'714.2
2017-Oct-14 05:00N 51°45' E 003°17'5 9.2
2017-Oct-14 04:30N 51°41' E 003°19'713.9
2017-Oct-14 04:00N 51°35' E 003°24'612.7
2017-Oct-14 03:30N 51°29' E 003°30'611.5
2017-Oct-14 03:00N 51°26' E 003°37'510.7
2017-Oct-14 02:30N 51°23' E 003°44'2 4.6
2017-Oct-14 01:58N 51°21' E 003°46'0 0.0
2017-Oct-14 01:28N 51°21' E 003°46'0 0.0
2017-Oct-14 00:58N 51°21' E 003°46'0 0.0
2017-Oct-14 00:28N 51°21' E 003°46'0 0.0
2017-Oct-13 23:58N 51°21' E 003°46'0 0.0
2017-Oct-13 23:28N 51°21' E 003°46'0 0.0
2017-Oct-13 22:58N 51°21' E 003°46'0 0.0
2017-Oct-13 22:28N 51°21' E 003°46'0 0.0
2017-Oct-13 21:49N 51°21' E 003°46'0 0.0
2017-Oct-13 21:25N 51°21' E 003°46'0 0.0
2017-Oct-13 20:58N 51°21' E 003°46'0 0.0
2017-Oct-13 20:28N 51°21' E 003°46'0 0.0
2017-Oct-13 19:58N 51°21' E 003°46'0 0.0
2017-Oct-13 19:28N 51°21' E 003°46'0 0.0
2017-Oct-13 18:58N 51°21' E 003°46'0 0.0
2017-Oct-13 18:28N 51°21' E 003°46'0 0.0
2017-Oct-13 17:58N 51°21' E 003°46'0 0.0
2017-Oct-13 17:28N 51°21' E 003°46'0 0.0
2017-Oct-13 16:58N 51°21' E 003°46'0 0.0
2017-Oct-13 16:28N 51°21' E 003°46'0 0.0
2017-Oct-13 15:58N 51°21' E 003°46'0 0.0
2017-Oct-13 15:28N 51°21' E 003°46'0 0.0
2017-Oct-13 14:58N 51°21' E 003°46'0 0.0
2017-Oct-13 14:16N 51°21' E 003°46'0 0.0
2017-Oct-13 13:52N 51°21' E 003°46'0 0.0
2017-Oct-13 13:28N 51°21' E 003°46'0 0.0
2017-Oct-13 12:58N 51°21' E 003°46'0 0.0
2017-Oct-13 12:28N 51°21' E 003°46'0 0.0
2017-Oct-13 11:58N 51°21' E 003°46'0 0.0
2017-Oct-13 11:22N 51°21' E 003°46'0 0.0
2017-Oct-13 10:58N 51°21' E 003°46'0 0.0
2017-Oct-13 10:28N 51°21' E 003°46'0 0.0
2017-Oct-13 09:58N 51°21' E 003°46'0 0.0
2017-Oct-13 09:22N 51°21' E 003°46'0 0.0
2017-Oct-13 08:52N 51°21' E 003°46'0 0.0
2017-Oct-13 08:22N 51°21' E 003°46'0 0.0
2017-Oct-13 07:58N 51°21' E 003°46'0 0.0
2017-Oct-13 07:28N 51°21' E 003°46'0 0.0
2017-Oct-13 06:58N 51°21' E 003°46'0 0.0
2017-Oct-13 06:22N 51°21' E 003°46'0 0.0
2017-Oct-13 05:52N 51°21' E 003°46'0 0.0
2017-Oct-13 05:28N 51°21' E 003°46'0 0.0
2017-Oct-13 04:58N 51°21' E 003°46'0 0.0
2017-Oct-13 04:22N 51°21' E 003°46'0 0.0
2017-Oct-13 03:58N 51°21' E 003°46'0 0.0
2017-Oct-13 03:22N 51°21' E 003°46'0 0.0
2017-Oct-13 02:49N 51°21' E 003°46'0 0.0
2017-Oct-13 02:28N 51°21' E 003°46'0 0.0
2017-Oct-13 01:58N 51°21' E 003°46'0 0.0
2017-Oct-13 01:16N 51°21' E 003°46'0 0.0
2017-Oct-13 00:52N 51°21' E 003°46'0 0.0
2017-Oct-13 00:16N 51°21' E 003°46'0 0.0
2017-Oct-12 23:58N 51°21' E 003°46'0 0.0
2017-Oct-12 23:28N 51°21' E 003°46'0 0.0
2017-Oct-12 22:58N 51°21' E 003°46'0 0.0
2017-Oct-12 22:28N 51°21' E 003°46'0 0.0
2017-Oct-12 21:58N 51°21' E 003°46'0 0.0
2017-Oct-12 21:28N 51°21' E 003°46'0 0.0
2017-Oct-12 20:58N 51°21' E 003°46'0 0.0
2017-Oct-12 20:28N 51°21' E 003°46'0 0.0
2017-Oct-12 19:58N 51°21' E 003°46'0 0.0
2017-Oct-12 19:28N 51°21' E 003°46'0 0.0
2017-Oct-12 18:58N 51°21' E 003°46'0 0.0
2017-Oct-12 18:28N 51°21' E 003°46'0 0.0
2017-Oct-12 17:58N 51°21' E 003°46'0 0.0
2017-Oct-12 17:28N 51°21' E 003°46'0 0.0
2017-Oct-12 16:52N 51°21' E 003°46'0 0.0
2017-Oct-12 16:28N 51°21' E 003°46'0 0.0
2017-Oct-12 15:34N 51°21' E 003°46'0 0.0
2017-Oct-12 15:28N 51°21' E 003°46'0 0.0
2017-Oct-12 14:58N 51°21' E 003°46'0 0.0
2017-Oct-12 14:25N 51°21' E 003°46'0 0.0
2017-Oct-12 13:58N 51°21' E 003°46'0 0.0
2017-Oct-12 13:22N 51°21' E 003°46'0 0.0
2017-Oct-12 12:58N 51°21' E 003°46'0 0.0
2017-Oct-12 12:22N 51°21' E 003°46'0 0.0
2017-Oct-12 11:58N 51°21' E 003°46'0 0.0
2017-Oct-12 11:22N 51°21' E 003°46'0 0.0
2017-Oct-12 10:52N 51°21' E 003°46'0 0.0
2017-Oct-12 10:28N 51°21' E 003°46'0 0.0
2017-Oct-12 10:00N 51°21' E 003°46'2 3.0
2017-Oct-12 09:30N 51°22' E 003°45'510.4
2017-Oct-12 09:00N 51°26' E 003°40'611.9
2017-Oct-12 08:31N 51°28' E 003°31'713.2
2017-Oct-12 08:00N 51°33' E 003°25'714.3
2017-Oct-12 07:30N 51°39' E 003°19'611.9
2017-Oct-12 07:00N 51°44' E 003°13'2 4.6
2017-Oct-12 06:30N 51°47' E 003°12'3 3.9
2017-Oct-12 05:49N 51°48' E 003°09'1 2.3
2017-Oct-12 05:12N 51°48' E 003°06'1 1.4
2017-Oct-12 04:19N 51°48' E 003°08'3 4.9
2017-Oct-12 03:46N 51°50' E 003°12'1 3.5
2017-Oct-12 03:28N 51°50' E 003°14'2 3.0
2017-Oct-12 02:55N 51°51' E 003°16'4 9.5
2017-Oct-12 02:30N 51°54' E 003°18'611.7
2017-Oct-12 01:58N 52°01' E 003°20'711.2
2017-Oct-12 01:22N 52°07' E 003°22'511.2
2017-Oct-12 00:57N 52°12' E 003°23'238 9.5
2017-Oct-10 23:57N 53°39' E 009°31'0 0.0
2017-Oct-10 23:27N 53°39' E 009°31'0 0.0
2017-Oct-10 22:57N 53°39' E 009°31'0 0.0
2017-Oct-10 22:27N 53°39' E 009°31'0 0.0
2017-Oct-10 21:57N 53°39' E 009°31'0 0.0
2017-Oct-10 21:27N 53°39' E 009°31'0 0.0
2017-Oct-10 20:57N 53°39' E 009°31'0 0.0
2017-Oct-10 20:27N 53°39' E 009°31'0 0.0
2017-Oct-10 19:57N 53°39' E 009°31'0 0.0
2017-Oct-10 19:27N 53°39' E 009°31'0 0.0
2017-Oct-10 18:57N 53°39' E 009°31'0 0.0
2017-Oct-10 18:27N 53°39' E 009°31'0 0.0
2017-Oct-10 17:57N 53°39' E 009°31'0 0.0
2017-Oct-10 17:27N 53°39' E 009°31'0 0.0
2017-Oct-10 16:57N 53°39' E 009°31'0 0.0
2017-Oct-10 16:27N 53°39' E 009°31'0 0.0
2017-Oct-10 15:57N 53°39' E 009°31'0 0.0
2017-Oct-10 15:27N 53°39' E 009°31'0 0.0
2017-Oct-10 14:57N 53°39' E 009°31'0 0.0
2017-Oct-10 13:57N 53°39' E 009°31'0 0.0
2017-Oct-10 13:27N 53°39' E 009°31'0 0.0
2017-Oct-10 12:51N 53°39' E 009°31'0 0.0
2017-Oct-10 12:27N 53°39' E 009°31'0 0.0
2017-Oct-10 11:57N 53°39' E 009°31'0 0.0
2017-Oct-10 11:27N 53°39' E 009°31'0 0.0
2017-Oct-10 10:57N 53°39' E 009°31'0 0.0
2017-Oct-10 10:27N 53°39' E 009°31'0 0.0
2017-Oct-10 09:57N 53°39' E 009°31'0 0.0
2017-Oct-10 09:27N 53°39' E 009°31'0 0.0
2017-Oct-10 08:39N 53°39' E 009°31'0 0.0
2017-Oct-10 08:15N 53°39' E 009°31'0 0.0
2017-Oct-10 07:57N 53°39' E 009°31'0 0.0
2017-Oct-10 07:27N 53°39' E 009°31'0 0.0
2017-Oct-10 06:57N 53°39' E 009°31'0 0.0
2017-Oct-10 06:27N 53°39' E 009°31'0 0.0
2017-Oct-10 05:57N 53°39' E 009°31'0 0.0
2017-Oct-10 05:21N 53°39' E 009°31'0 0.0
2017-Oct-10 04:57N 53°39' E 009°31'0 0.0
2017-Oct-10 04:27N 53°39' E 009°31'0 0.0
2017-Oct-10 03:57N 53°39' E 009°31'0 0.0
2017-Oct-10 03:27N 53°39' E 009°31'0 0.0
2017-Oct-10 02:57N 53°39' E 009°31'0 0.0
2017-Oct-10 02:27N 53°39' E 009°31'0 0.0
2017-Oct-10 01:57N 53°39' E 009°31'0 0.0
2017-Oct-10 01:30N 53°39' E 009°31'0 0.0
2017-Oct-10 00:57N 53°39' E 009°31'0 0.0
2017-Oct-10 00:27N 53°39' E 009°31'0 0.0
2017-Oct-09 23:57N 53°39' E 009°31'0 0.0
2017-Oct-09 23:27N 53°39' E 009°31'0 0.0
2017-Oct-09 22:57N 53°39' E 009°31'0 0.0
2017-Oct-09 22:27N 53°39' E 009°31'0 0.0
2017-Oct-09 22:00N 53°39' E 009°31'0 0.0
2017-Oct-09 21:30N 53°39' E 009°31'0 0.0
2017-Oct-09 21:00N 53°39' E 009°31'0 0.0
2017-Oct-09 20:21N 53°39' E 009°31'0 0.0
2017-Oct-09 19:57N 53°39' E 009°31'0 0.0
2017-Oct-09 19:27N 53°39' E 009°31'0 0.0
2017-Oct-09 18:57N 53°39' E 009°31'0 0.0
2017-Oct-09 18:27N 53°39' E 009°31'0 0.0
2017-Oct-09 17:57N 53°39' E 009°31'0 0.0
2017-Oct-09 17:27N 53°39' E 009°31'0 0.2
2017-Oct-09 17:01N 53°39' E 009°31'2 3.7
2017-Oct-09 16:31N 53°41' E 009°30'713.2
2017-Oct-09 16:00N 53°46' E 009°24'714.1
2017-Oct-09 15:30N 53°52' E 009°17'612.5
2017-Oct-09 15:00N 53°53' E 009°06'816.0
2017-Oct-09 14:30N 53°50' E 008°53'714.4
2017-Oct-09 14:01N 53°53' E 008°42'714.6
2017-Oct-09 13:30N 53°58' E 008°33'815.5
2017-Oct-09 13:00N 53°59' E 008°20'9 9.2
2017-Oct-09 11:59N 54°02' E 008°04'2 0.5
2017-Oct-09 07:17N 54°03' E 008°08'0 0.1
2017-Oct-09 06:59N 54°03' E 008°08'0 0.0
2017-Oct-09 05:23N 54°03' E 008°08'0 0.0
2017-Oct-09 04:44N 54°03' E 008°08'0 0.0
2017-Oct-09 04:26N 54°03' E 008°08'0 0.0
2017-Oct-09 03:53N 54°03' E 008°08'0 0.0
2017-Oct-09 03:26N 54°03' E 008°08'0 0.8
2017-Oct-09 03:00N 54°03' E 008°08'510.0
2017-Oct-09 02:30N 54°01' E 008°00'713.9
2017-Oct-09 02:00N 53°58' E 007°49'8515.0
2017-Oct-08 20:23N 53°35' E 005°32'815.5
2017-Oct-08 19:51N 53°33' E 005°18'515.4
2017-Oct-08 19:31N 53°31' E 005°10'815.7
2017-Oct-08 19:00N 53°28' E 004°58'815.5
2017-Oct-08 18:30N 53°25' E 004°46'815.0
2017-Oct-08 18:00N 53°18' E 004°39'1215.7
2017-Oct-08 17:14N 53°08' E 004°29'415.9
2017-Oct-08 17:00N 53°05' E 004°26'815.7
2017-Oct-08 16:30N 52°58' E 004°20'815.4
2017-Oct-08 16:00N 52°51' E 004°14'815.3
2017-Oct-08 15:30N 52°44' E 004°08'714.9
2017-Oct-08 15:00N 52°39' E 003°60'714.7
2017-Oct-08 14:30N 52°34' E 003°51'5312.8
2017-Oct-08 10:21N 51°45' E 003°15'410.3
2017-Oct-08 09:59N 51°42' E 003°18'712.6
2017-Oct-08 09:28N 51°36' E 003°23'511.8
2017-Oct-08 09:00N 51°31' E 003°26'612.3
2017-Oct-08 08:30N 51°27' E 003°33'713.1
2017-Oct-08 08:00N 51°24' E 003°43'4 6.3
2017-Oct-08 07:22N 51°21' E 003°46'0 0.0
2017-Oct-08 06:58N 51°21' E 003°46'0 0.0
2017-Oct-08 06:28N 51°21' E 003°46'0 0.0
2017-Oct-08 05:58N 51°21' E 003°46'0 0.0
2017-Oct-08 05:28N 51°21' E 003°46'0 0.0
2017-Oct-08 04:43N 51°21' E 003°46'0 0.0
2017-Oct-08 04:10N 51°21' E 003°46'0 0.0
2017-Oct-08 03:52N 51°21' E 003°46'0 0.0
2017-Oct-08 03:28N 51°21' E 003°46'0 0.0
2017-Oct-08 02:58N 51°21' E 003°46'0 0.0
2017-Oct-08 02:28N 51°21' E 003°46'0 0.0
2017-Oct-08 01:58N 51°21' E 003°46'0 0.0
2017-Oct-08 01:28N 51°21' E 003°46'0 0.0
2017-Oct-08 00:58N 51°21' E 003°46'0 0.0
2017-Oct-08 00:28N 51°21' E 003°46'0 0.0
2017-Oct-07 23:58N 51°21' E 003°46'0 0.0
2017-Oct-07 23:28N 51°21' E 003°46'0 0.0
2017-Oct-07 22:58N 51°21' E 003°46'0 0.0
2017-Oct-07 22:28N 51°21' E 003°46'0 0.0
2017-Oct-07 21:58N 51°21' E 003°46'0 0.0
2017-Oct-07 21:28N 51°21' E 003°46'0 0.0
2017-Oct-07 20:58N 51°21' E 003°46'0 0.0
2017-Oct-07 20:28N 51°21' E 003°46'0 0.0
2017-Oct-07 19:55N 51°21' E 003°46'0 0.0
2017-Oct-07 19:28N 51°21' E 003°46'0 0.0
2017-Oct-07 18:58N 51°21' E 003°46'0 0.0
2017-Oct-07 18:25N 51°21' E 003°46'0 0.0
2017-Oct-07 17:58N 51°21' E 003°46'0 0.0
2017-Oct-07 17:28N 51°21' E 003°46'0 0.0
2017-Oct-07 16:52N 51°21' E 003°46'0 0.0
2017-Oct-07 16:28N 51°21' E 003°46'0 0.0
2017-Oct-07 15:58N 51°21' E 003°46'0 0.0
2017-Oct-07 15:25N 51°21' E 003°46'0 0.0
2017-Oct-07 14:58N 51°21' E 003°46'0 0.0
2017-Oct-07 14:28N 51°21' E 003°46'0 0.0
2017-Oct-07 13:58N 51°21' E 003°46'0 0.0
2017-Oct-07 13:28N 51°21' E 003°46'0 0.0
2017-Oct-07 12:40N 51°21' E 003°46'0 0.0
2017-Oct-07 12:28N 51°21' E 003°46'0 0.0
2017-Oct-07 11:58N 51°21' E 003°46'0 0.0
2017-Oct-07 11:28N 51°21' E 003°46'0 0.0
2017-Oct-07 10:52N 51°21' E 003°46'0 0.0
2017-Oct-07 10:28N 51°21' E 003°46'0 0.0
2017-Oct-07 09:49N 51°21' E 003°46'0 0.0
2017-Oct-07 09:25N 51°21' E 003°46'0 0.0
2017-Oct-07 08:58N 51°21' E 003°46'0 0.0
2017-Oct-07 08:22N 51°21' E 003°46'0 0.0
2017-Oct-07 07:52N 51°21' E 003°46'0 0.0
2017-Oct-07 07:28N 51°21' E 003°46'0 0.0
2017-Oct-07 06:49N 51°21' E 003°46'0 0.0
2017-Oct-07 06:28N 51°21' E 003°46'0 0.0
2017-Oct-07 05:55N 51°21' E 003°46'0 0.0
2017-Oct-07 05:28N 51°21' E 003°46'0 0.0
2017-Oct-07 04:58N 51°21' E 003°46'0 0.0
2017-Oct-07 04:28N 51°21' E 003°46'0 0.0
2017-Oct-07 03:58N 51°21' E 003°46'0 0.0
2017-Oct-07 03:28N 51°21' E 003°46'0 0.0
2017-Oct-07 02:58N 51°21' E 003°46'0 0.0
2017-Oct-07 02:28N 51°21' E 003°46'0 0.0
2017-Oct-07 01:58N 51°21' E 003°46'  

Dump ship's entire track history